Time;durP1;ratioP1;P1;durP2;ratioP2;P2;SDS_P1;SDS_P2;PMS_P1;PMS_P2;Temp;Humidity;BMP_temperature;BMP_pressure;BME280_temperature;BME280_humidity;BME280_pressure;Samples;Min_cycle;Max_cycle;Signal;HPM_P1;HPM_P2
2021/06/14 00:01:31;;;;;;;1.33;1.23;;;;;;;;;;4997700;28;20112;-61
2021/06/14 00:03:56;;;;;;;1.38;1.20;;;;;;;;;;4999732;28;20065;-62
2021/06/14 00:06:22;;;;;;;1.20;1.10;;;;;;;;;;5002925;28;20341;-62
2021/06/14 00:08:47;;;;;;;2.17;1.30;;;;;;;;;;5006009;28;20028;-62
2021/06/14 00:11:13;;;;;;;1.45;1.17;;;;;;;;;;5014778;28;20072;-61
2021/06/14 00:13:40;;;;;;;2.38;1.30;;;;;;;;;;4995511;28;20087;-62
2021/06/14 00:16:06;;;;;;;1.40;1.23;;;;;;;;;;5000817;28;20065;-62
2021/06/14 00:18:32;;;;;;;2.03;1.20;;;;;;;;;;5000269;28;20053;-61
2021/06/14 00:21:02;;;;;;;1.52;1.40;;;;;;;;;;5002779;28;20053;-62
2021/06/14 00:23:30;;;;;;;1.40;1.30;;;;;;;;;;5015079;28;20044;-61
2021/06/14 00:25:56;;;;;;;1.25;1.15;;;;;;;;;;5004456;28;20041;-61
2021/06/14 00:28:24;;;;;;;3.28;1.02;;;;;;;;;;5005910;28;20029;-61
2021/06/14 00:30:51;;;;;;;1.48;1.00;;;;;;;;;;5004158;28;20115;-61
2021/06/14 00:33:18;;;;;;;1.80;1.00;;;;;;;;;;5000929;28;20026;-62
2021/06/14 00:35:45;;;;;;;1.23;1.13;;;;;;;;;;5003734;28;20105;-62
2021/06/14 00:38:11;;;;;;;1.90;1.30;;;;;;;;;;5004472;28;20411;-62
2021/06/14 00:40:37;;;;;;;3.58;1.20;;;;;;;;;;4998810;28;20122;-61
2021/06/14 00:43:04;;;;;;;3.50;1.48;;;;;;;;;;5000033;28;20212;-62
2021/06/14 00:45:31;;;;;;;1.40;1.13;;;;;;;;;;4994693;28;20197;-61
2021/06/14 00:48:02;;;;;;;2.17;1.10;;;;;;;;;;5002567;28;20030;-61
2021/06/14 00:50:37;;;;;;;1.75;1.17;;;;;;;;;;5003546;28;20030;-61
2021/06/14 00:53:05;;;;;;;1.67;1.23;;;;;;;;;;5008030;28;20026;-61
2021/06/14 00:55:30;;;;;;;1.30;1.20;;;;;;;;;;5005119;28;20033;-61
2021/06/14 00:57:56;;;;;;;1.05;1.00;;;;;;;;;;5000629;28;20034;-61
2021/06/14 01:00:22;;;;;;;2.58;1.25;;;;;;;;;;5004779;28;20449;-62
2021/06/14 01:02:48;;;;;;;1.30;1.20;;;;;;;;;;5000801;28;20029;-61
2021/06/14 01:05:14;;;;;;;2.33;1.20;;;;;;;;;;5009317;28;20492;-62
2021/06/14 01:07:40;;;;;;;1.67;1.30;;;;;;;;;;5002260;28;20034;-61
2021/06/14 01:10:07;;;;;;;2.55;1.40;;;;;;;;;;4995837;28;20036;-62
2021/06/14 01:12:43;;;;;;;1.90;1.20;;;;;;;;;;5002202;28;20060;-61
2021/06/14 01:15:16;;;;;;;1.85;1.17;;;;;;;;;;5005436;28;20113;-61
2021/06/14 01:17:59;;;;;;;1.92;1.23;;;;;;;;;;5005895;28;20105;-61
2021/06/14 01:20:47;;;;;;;1.40;1.30;;;;;;;;;;5002938;28;20062;-61
2021/06/14 01:23:40;;;;;;;1.27;1.10;;;;;;;;;;5005685;28;20576;-61
2021/06/14 01:26:20;;;;;;;1.33;1.23;;;;;;;;;;5006148;28;20180;-61
2021/06/14 01:28:49;;;;;;;2.88;1.60;;;;;;;;;;5003335;28;20029;-61
2021/06/14 01:31:15;;;;;;;1.45;1.35;;;;;;;;;;5000361;28;20038;-62
2021/06/14 01:33:41;;;;;;;1.63;1.30;;;;;;;;;;5004854;28;20634;-61
2021/06/14 01:36:12;;;;;;;1.60;1.50;;;;;;;;;;5006525;28;20061;-62
2021/06/14 01:38:40;;;;;;;3.28;1.65;;;;;;;;;;5003272;28;20040;-61
2021/06/14 01:41:08;;;;;;;1.48;1.38;;;;;;;;;;5003788;28;20021;-61
2021/06/14 01:43:36;;;;;;;3.38;1.58;;;;;;;;;;4996820;28;20518;-61
2021/06/14 01:46:06;;;;;;;2.80;1.70;;;;;;;;;;5004409;28;20089;-61
2021/06/14 01:48:31;;;;;;;2.05;1.30;;;;;;;;;;5000212;28;20031;-61
2021/06/14 01:50:58;;;;;;;1.77;1.42;;;;;;;;;;5003010;28;20052;-61
2021/06/14 01:53:25;;;;;;;1.58;1.40;;;;;;;;;;4999690;28;20033;-61
2021/06/14 01:55:51;;;;;;;1.70;1.60;;;;;;;;;;5002114;28;20076;-61
2021/06/14 01:58:19;;;;;;;1.73;1.63;;;;;;;;;;4999178;28;20464;-61
2021/06/14 02:00:45;;;;;;;2.03;1.65;;;;;;;;;;5000800;28;20133;-61
2021/06/14 02:03:13;;;;;;;1.50;1.40;;;;;;;;;;5001869;28;20077;-61
2021/06/14 02:05:41;;;;;;;2.10;1.55;;;;;;;;;;5000821;28;20022;-61
2021/06/14 02:08:12;;;;;;;1.70;1.60;;;;;;;;;;5000444;28;20046;-61
2021/06/14 02:10:38;;;;;;;1.63;1.50;;;;;;;;;;5001421;28;20033;-61
2021/06/14 02:13:04;;;;;;;1.73;1.60;;;;;;;;;;5003931;28;20026;-61
2021/06/14 02:15:31;;;;;;;1.80;1.55;;;;;;;;;;4995576;28;20451;-61
2021/06/14 02:17:58;;;;;;;2.03;1.63;;;;;;;;;;4998959;28;20085;-61
2021/06/14 02:20:25;;;;;;;1.90;1.67;;;;;;;;;;5002020;28;20092;-60
2021/06/14 02:22:51;;;;;;;2.53;1.70;;;;;;;;;;5001929;28;20026;-61
2021/06/14 02:25:17;;;;;;;3.47;1.80;;;;;;;;;;4997313;28;20041;-61
2021/06/14 02:27:43;;;;;;;2.22;1.63;;;;;;;;;;4999350;28;20026;-61
2021/06/14 02:30:13;;;;;;;1.80;1.70;;;;;;;;;;5004890;28;20447;-61
2021/06/14 02:32:38;;;;;;;2.03;1.67;;;;;;;;;;5000210;28;20413;-61
2021/06/14 02:35:06;;;;;;;1.60;1.50;;;;;;;;;;5006167;28;20060;-61
2021/06/14 02:37:33;;;;;;;1.92;1.50;;;;;;;;;;5004958;28;20041;-61
2021/06/14 02:39:58;;;;;;;1.60;1.50;;;;;;;;;;5000674;28;20026;-61
2021/06/14 02:42:24;;;;;;;3.22;1.85;;;;;;;;;;5016823;28;20061;-61
2021/06/14 02:44:50;;;;;;;1.77;1.48;;;;;;;;;;4995416;28;20463;-61
2021/06/14 02:47:17;;;;;;;2.40;1.60;;;;;;;;;;5003921;28;20040;-61
2021/06/14 02:49:44;;;;;;;2.13;1.90;;;;;;;;;;4998086;28;20226;-61
2021/06/14 02:52:12;;;;;;;2.03;1.83;;;;;;;;;;5000419;28;20175;-61
2021/06/14 02:54:52;;;;;;;1.92;1.83;;;;;;;;;;5002921;28;20072;-61
2021/06/14 02:57:18;;;;;;;2.13;1.75;;;;;;;;;;5015787;28;20068;-61
2021/06/14 02:59:46;;;;;;;2.33;2.13;;;;;;;;;;5005479;28;20062;-61
2021/06/14 03:02:13;;;;;;;4.05;1.90;;;;;;;;;;4999807;28;20346;-61
2021/06/14 03:04:38;;;;;;;2.00;1.80;;;;;;;;;;5011849;28;20104;-61
2021/06/14 03:07:04;;;;;;;2.08;1.83;;;;;;;;;;5001139;28;20481;-61
2021/06/14 03:09:30;;;;;;;2.20;1.90;;;;;;;;;;5000777;28;20543;-61
2021/06/14 03:11:57;;;;;;;2.17;1.95;;;;;;;;;;4997692;28;20157;-61
2021/06/14 03:14:23;;;;;;;3.05;2.00;;;;;;;;;;5001750;28;20109;-61
2021/06/14 03:16:49;;;;;;;1.88;1.77;;;;;;;;;;5016622;28;20058;-61
2021/06/14 03:19:15;;;;;;;2.22;1.80;;;;;;;;;;5000335;28;20468;-61
2021/06/14 03:21:42;;;;;;;2.55;1.80;;;;;;;;;;4994659;28;20018;-61
2021/06/14 03:24:08;;;;;;;2.00;1.80;;;;;;;;;;5001358;28;20098;-61
2021/06/14 03:26:40;;;;;;;2.65;1.80;;;;;;;;;;4999195;28;20030;-61
2021/06/14 03:29:08;;;;;;;2.38;2.00;;;;;;;;;;5003841;28;20116;-61
2021/06/14 03:31:35;;;;;;;1.83;1.63;;;;;;;;;;5001000;28;20033;-62
2021/06/14 03:34:01;;;;;;;2.25;1.73;;;;;;;;;;4994575;28;20034;-61
2021/06/14 03:36:31;;;;;;;2.20;1.88;;;;;;;;;;5000837;28;20483;-61
2021/06/14 03:38:58;;;;;;;2.70;1.60;;;;;;;;;;5003620;28;20349;-61
2021/06/14 03:41:24;;;;;;;2.92;1.77;;;;;;;;;;4998328;28;20217;-62
2021/06/14 03:43:49;;;;;;;2.28;2.08;;;;;;;;;;5003866;28;20112;-61
2021/06/14 03:46:15;;;;;;;1.90;1.50;;;;;;;;;;4998989;28;20030;-61
2021/06/14 03:48:41;;;;;;;2.20;1.80;;;;;;;;;;4999340;28;20518;-61
2021/06/14 03:51:09;;;;;;;3.20;1.80;;;;;;;;;;5004980;28;20116;-61
2021/06/14 03:53:35;;;;;;;2.10;1.90;;;;;;;;;;5004683;28;20033;-61
2021/06/14 03:56:08;;;;;;;2.10;1.90;;;;;;;;;;5005384;28;20391;-61
2021/06/14 03:58:37;;;;;;;2.08;1.88;;;;;;;;;;4997103;28;20041;-61
2021/06/14 04:01:04;;;;;;;1.93;1.73;;;;;;;;;;5002929;28;20040;-61
2021/06/14 04:03:30;;;;;;;2.25;1.75;;;;;;;;;;4996910;28;20277;-61
2021/06/14 04:05:58;;;;;;;2.40;1.80;;;;;;;;;;4998664;28;20032;-60
2021/06/14 04:08:23;;;;;;;1.88;1.70;;;;;;;;;;5008911;28;20060;-61
2021/06/14 04:10:49;;;;;;;1.60;1.50;;;;;;;;;;4996082;28;20432;-61
2021/06/14 04:13:14;;;;;;;4.13;1.83;;;;;;;;;;5000915;28;20119;-61
2021/06/14 04:15:40;;;;;;;4.88;2.00;;;;;;;;;;5005072;28;20466;-61
2021/06/14 04:18:05;;;;;;;1.95;1.73;;;;;;;;;;4995682;28;20554;-61
2021/06/14 04:20:31;;;;;;;1.90;1.80;;;;;;;;;;5006846;28;20021;-61
2021/06/14 04:22:57;;;;;;;2.05;1.60;;;;;;;;;;5003786;28;20357;-60
2021/06/14 04:25:22;;;;;;;2.67;1.90;;;;;;;;;;5008830;28;20054;-61
2021/06/14 04:27:48;;;;;;;2.30;1.50;;;;;;;;;;5004476;28;20103;-60
2021/06/14 04:30:14;;;;;;;2.90;1.92;;;;;;;;;;5009914;28;20399;-60
2021/06/14 04:32:40;;;;;;;1.90;1.63;;;;;;;;;;5006617;28;20111;-60
2021/06/14 04:35:06;;;;;;;4.57;2.92;;;;;;;;;;5008117;28;20437;-60
2021/06/14 04:37:32;;;;;;;4.15;3.45;;;;;;;;;;5001461;28;20026;-61
2021/06/14 04:39:58;;;;;;;2.45;2.25;;;;;;;;;;5003314;28;20037;-60
2021/06/14 04:42:26;;;;;;;2.80;2.20;;;;;;;;;;5000200;28;20027;-61
2021/06/14 04:44:51;;;;;;;2.88;1.95;;;;;;;;;;5001842;28;20117;-60
2021/06/14 04:47:17;;;;;;;5.65;4.50;;;;;;;;;;5004810;28;20463;-61
2021/06/14 04:49:42;;;;;;;3.35;3.00;;;;;;;;;;5000675;28;20143;-60
2021/06/14 04:52:08;;;;;;;5.22;4.13;;;;;;;;;;4995048;28;20356;-60
2021/06/14 04:54:33;;;;;;;3.35;2.33;;;;;;;;;;5005988;28;20423;-60
2021/06/14 04:56:58;;;;;;;3.05;2.08;;;;;;;;;;5006945;28;20404;-60
2021/06/14 04:59:24;;;;;;;2.40;2.20;;;;;;;;;;5002242;28;20138;-60
2021/06/14 05:01:50;;;;;;;2.60;2.40;;;;;;;;;;5008300;28;20108;-60
2021/06/14 05:04:15;;;;;;;4.05;2.60;;;;;;;;;;5002402;28;20035;-60
2021/06/14 05:06:41;;;;;;;3.45;2.63;;;;;;;;;;5005007;28;20108;-60
2021/06/14 05:09:06;;;;;;;4.88;3.15;;;;;;;;;;5008554;28;20363;-58
2021/06/14 05:11:32;;;;;;;4.00;3.33;;;;;;;;;;5005212;28;20034;-59
2021/06/14 05:13:57;;;;;;;3.90;2.80;;;;;;;;;;5022695;28;20021;-58
2021/06/14 05:16:23;;;;;;;4.13;2.90;;;;;;;;;;5007516;28;20025;-60
2021/06/14 05:18:48;;;;;;;3.60;2.90;;;;;;;;;;5004740;28;20121;-60
2021/06/14 05:21:14;;;;;;;3.22;2.60;;;;;;;;;;5006237;28;20109;-61
2021/06/14 05:23:39;;;;;;;2.38;2.00;;;;;;;;;;5004091;28;20034;-61
2021/06/14 05:26:04;;;;;;;2.65;2.17;;;;;;;;;;5006501;28;20034;-60
2021/06/14 05:28:30;;;;;;;2.22;1.90;;;;;;;;;;5001250;28;20455;-60
2021/06/14 05:30:55;;;;;;;2.47;2.22;;;;;;;;;;5000188;28;20029;-60
2021/06/14 05:33:21;;;;;;;2.13;1.92;;;;;;;;;;5006648;28;20033;-60
2021/06/14 05:35:46;;;;;;;2.35;1.80;;;;;;;;;;5007046;28;20021;-60
2021/06/14 05:38:12;;;;;;;3.00;1.90;;;;;;;;;;5003021;28;20044;-60
2021/06/14 05:40:37;;;;;;;2.38;1.90;;;;;;;;;;4999693;28;20388;-60
2021/06/14 05:43:03;;;;;;;2.10;1.90;;;;;;;;;;5018362;28;20091;-59
2021/06/14 05:45:28;;;;;;;3.38;2.00;;;;;;;;;;4996678;28;20128;-60
2021/06/14 05:47:54;;;;;;;2.78;1.95;;;;;;;;;;4999021;28;20041;-61
2021/06/14 05:50:19;;;;;;;3.17;2.88;;;;;;;;;;4998206;28;20026;-59
2021/06/14 05:52:45;;;;;;;3.28;1.95;;;;;;;;;;5001915;28;20042;-60
2021/06/14 05:55:10;;;;;;;2.30;2.10;;;;;;;;;;5006790;28;20029;-60
2021/06/14 05:57:36;;;;;;;2.10;1.90;;;;;;;;;;5000585;28;20030;-60
2021/06/14 06:00:05;;;;;;;2.60;2.22;;;;;;;;;;4997499;28;20030;-60
2021/06/14 06:02:31;;;;;;;2.25;2.05;;;;;;;;;;5007475;28;20116;-60
2021/06/14 06:04:56;;;;;;;2.30;2.10;;;;;;;;;;4998388;28;20145;-59
2021/06/14 06:07:22;;;;;;;2.50;2.10;;;;;;;;;;5005364;28;20030;-60
2021/06/14 06:09:47;;;;;;;2.67;2.47;;;;;;;;;;5007281;28;20625;-60
2021/06/14 06:12:13;;;;;;;2.50;2.30;;;;;;;;;;5005187;28;20030;-60
2021/06/14 06:14:38;;;;;;;3.17;2.92;;;;;;;;;;4999391;28;20026;-60
2021/06/14 06:17:04;;;;;;;5.22;2.80;;;;;;;;;;5003197;28;20022;-59
2021/06/14 06:19:29;;;;;;;5.95;2.63;;;;;;;;;;5004601;28;20029;-60
2021/06/14 06:21:55;;;;;;;3.75;2.70;;;;;;;;;;4996969;28;20033;-60
2021/06/14 06:24:20;;;;;;;3.25;2.20;;;;;;;;;;5006739;28;20030;-60
2021/06/14 06:26:46;;;;;;;3.75;2.20;;;;;;;;;;4996744;28;20404;-60
2021/06/14 06:29:11;;;;;;;2.42;2.20;;;;;;;;;;5002896;28;20037;-60
2021/06/14 06:31:36;;;;;;;3.80;2.25;;;;;;;;;;5002593;28;20022;-59
2021/06/14 06:34:02;;;;;;;2.97;1.80;;;;;;;;;;5004372;28;20026;-60
2021/06/14 06:36:28;;;;;;;3.17;2.08;;;;;;;;;;5005117;28;20040;-61
2021/06/14 06:38:53;;;;;;;4.47;2.42;;;;;;;;;;4996914;28;20037;-60
2021/06/14 06:41:19;;;;;;;3.15;2.20;;;;;;;;;;5002944;28;20025;-60
2021/06/14 06:43:44;;;;;;;2.17;1.95;;;;;;;;;;4999915;28;20476;-60
2021/06/14 06:46:11;;;;;;;3.30;1.85;;;;;;;;;;5002665;28;20027;-60
2021/06/14 06:48:37;;;;;;;3.20;1.75;;;;;;;;;;5001297;28;20137;-60
2021/06/14 06:51:03;;;;;;;3.45;2.20;;;;;;;;;;5003932;28;20199;-61
2021/06/14 06:53:29;;;;;;;2.85;1.77;;;;;;;;;;5003500;28;20629;-59
2021/06/14 06:55:55;;;;;;;4.47;1.92;;;;;;;;;;4998635;28;20097;-60
2021/06/14 06:58:21;;;;;;;2.17;1.80;;;;;;;;;;5005443;28;20088;-60
2021/06/14 07:00:51;;;;;;;2.63;1.90;;;;;;;;;;4998243;28;20034;-60
2021/06/14 07:03:18;;;;;;;2.55;1.55;;;;;;;;;;4998842;28;20036;-60
2021/06/14 07:05:46;;;;;;;3.03;1.90;;;;;;;;;;5001225;28;20141;-60
2021/06/14 07:08:11;;;;;;;2.22;1.77;;;;;;;;;;5002798;28;20393;-60
2021/06/14 07:10:40;;;;;;;1.90;1.70;;;;;;;;;;5004624;28;20048;-60
2021/06/14 07:13:06;;;;;;;2.27;1.70;;;;;;;;;;5004359;28;20478;-60
2021/06/14 07:15:34;;;;;;;2.85;1.80;;;;;;;;;;5002460;28;20112;-60
2021/06/14 07:18:00;;;;;;;1.98;1.70;;;;;;;;;;5000236;28;20033;-60
2021/06/14 07:20:28;;;;;;;2.60;1.80;;;;;;;;;;4998520;28;20034;-60
2021/06/14 07:22:54;;;;;;;2.53;1.83;;;;;;;;;;5004344;28;20050;-60
2021/06/14 07:25:20;;;;;;;3.05;1.92;;;;;;;;;;5003772;28;20414;-60
2021/06/14 07:27:45;;;;;;;3.63;2.00;;;;;;;;;;4995624;28;20026;-60
2021/06/14 07:30:15;;;;;;;1.88;1.67;;;;;;;;;;4999738;28;20057;-60
2021/06/14 07:32:40;;;;;;;;;;;;;;;;;;5000219;28;20488;-60
2021/06/14 07:35:06;;;;;;;4.57;2.10;;;;;;;;;;5002949;28;19972;-60
2021/06/14 07:37:32;;;;;;;2.28;1.95;;;;;;;;;;5001099;28;20443;-60
2021/06/14 07:40:00;;;;;;;2.38;1.88;;;;;;;;;;5000924;28;20039;-60
2021/06/14 07:42:26;;;;;;;2.10;1.67;;;;;;;;;;4999949;28;20014;-60
2021/06/14 07:44:51;;;;;;;1.67;1.58;;;;;;;;;;4995866;28;20085;-60
2021/06/14 07:47:16;;;;;;;2.10;1.90;;;;;;;;;;5001205;28;20028;-60
2021/06/14 07:49:42;;;;;;;1.92;1.70;;;;;;;;;;5001458;28;20507;-60
2021/06/14 07:52:08;;;;;;;2.58;1.70;;;;;;;;;;5006382;28;20030;-60
2021/06/14 07:54:34;;;;;;;2.38;1.70;;;;;;;;;;5002265;28;20026;-60
2021/06/14 07:57:00;;;;;;;1.92;1.65;;;;;;;;;;5003853;28;20041;-60
2021/06/14 07:59:26;;;;;;;5.90;2.05;;;;;;;;;;5001250;28;20037;-60
2021/06/14 08:01:52;;;;;;;1.92;1.73;;;;;;;;;;5003253;28;20025;-60
2021/06/14 08:04:17;;;;;;;3.45;1.42;;;;;;;;;;4997215;28;20049;-60
2021/06/14 08:06:43;;;;;;;1.60;1.50;;;;;;;;;;5003468;28;20104;-59
2021/06/14 08:09:11;;;;;;;5.50;2.15;;;;;;;;;;4995093;28;20034;-60
2021/06/14 08:11:37;;;;;;;2.72;2.03;;;;;;;;;;4996170;28;20042;-60
2021/06/14 08:14:04;;;;;;;2.47;1.75;;;;;;;;;;5002404;28;20113;-60
2021/06/14 08:16:30;;;;;;;4.13;2.03;;;;;;;;;;4997403;28;20497;-60
2021/06/14 08:26:33;;;;;;;2.88;1.60;;;;;;;;;;4995728;28;20060;-60
2021/06/14 08:29:00;;;;;;;2.85;1.70;;;;;;;;;;4995282;28;20130;-60
2021/06/14 08:31:27;;;;;;;3.08;1.65;;;;;;;;;;4993256;28;20076;-60
2021/06/14 08:33:53;;;;;;;1.90;1.60;;;;;;;;;;4997443;28;20515;-60
2021/06/14 08:36:19;;;;;;;2.80;1.83;;;;;;;;;;4994220;28;20034;-60
2021/06/14 08:38:47;;;;;;;2.75;1.60;;;;;;;;;;4998782;28;20081;-60
2021/06/14 08:41:15;;;;;;;3.28;1.60;;;;;;;;;;4995594;28;20022;-60
2021/06/14 08:43:41;;;;;;;2.15;1.50;;;;;;;;;;5002244;28;20037;-60
2021/06/14 08:46:07;;;;;;;1.77;1.30;;;;;;;;;;4995943;28;20029;-60
2021/06/14 08:48:34;;;;;;;3.45;1.40;;;;;;;;;;4999499;28;20037;-60
2021/06/14 08:50:59;;;;;;;2.45;1.50;;;;;;;;;;5004015;28;20042;-60
2021/06/14 08:53:25;;;;;;;2.25;1.58;;;;;;;;;;5000075;28;20030;-60
2021/06/14 08:55:51;;;;;;;2.15;1.60;;;;;;;;;;4998533;28;20400;-60
2021/06/14 08:58:16;;;;;;;1.60;1.50;;;;;;;;;;5004659;28;20030;-60
2021/06/14 09:00:42;;;;;;;2.63;1.50;;;;;;;;;;5002634;28;20029;-60
2021/06/14 09:03:07;;;;;;;2.92;1.38;;;;;;;;;;4996626;28;20451;-60
2021/06/14 09:05:33;;;;;;;2.63;1.60;;;;;;;;;;5009901;28;20081;-60
2021/06/14 09:08:05;;;;;;;1.92;1.60;;;;;;;;;;5004895;28;20388;-60
2021/06/14 09:10:36;;;;;;;2.03;1.60;;;;;;;;;;5005750;28;20506;-60
2021/06/14 09:13:17;;;;;;;2.00;1.38;;;;;;;;;;5003169;28;20040;-61
2021/06/14 09:15:45;;;;;;;1.40;1.30;;;;;;;;;;5005124;28;20026;-60
2021/06/14 09:18:21;;;;;;;1.45;1.30;;;;;;;;;;5001441;28;20440;-61
2021/06/14 09:21:03;;;;;;;1.75;1.40;;;;;;;;;;5004272;28;20022;-61
2021/06/14 09:23:47;;;;;;;1.98;1.38;;;;;;;;;;5001776;28;20048;-60
2021/06/14 09:26:23;;;;;;;1.60;1.40;;;;;;;;;;5003254;28;20061;-60
2021/06/14 09:28:50;;;;;;;3.47;1.35;;;;;;;;;;4999113;28;20076;-60
2021/06/14 09:31:16;;;;;;;3.20;1.40;;;;;;;;;;5001518;28;20080;-60
2021/06/14 09:33:43;;;;;;;2.08;1.30;;;;;;;;;;5005875;28;20030;-61
2021/06/14 09:36:09;;;;;;;1.60;1.10;;;;;;;;;;5000560;28;20116;-60
2021/06/14 09:38:35;;;;;;;2.35;1.40;;;;;;;;;;5002110;28;20117;-60
2021/06/14 09:41:09;;;;;;;1.40;1.20;;;;;;;;;;5006419;28;20030;-60
2021/06/14 09:43:36;;;;;;;2.30;1.42;;;;;;;;;;5002491;28;20091;-60
2021/06/14 09:46:05;;;;;;;2.55;1.20;;;;;;;;;;5003083;28;20680;-61
2021/06/14 09:48:35;;;;;;;2.92;1.30;;;;;;;;;;5001696;28;20046;-60
2021/06/14 09:51:00;;;;;;;3.50;1.58;;;;;;;;;;4999118;28;20042;-60
2021/06/14 09:53:34;;;;;;;2.35;1.20;;;;;;;;;;5004771;28;20030;-60
2021/06/14 09:56:11;;;;;;;1.55;1.33;;;;;;;;;;5006281;28;20025;-61
2021/06/14 09:58:41;;;;;;;1.80;1.20;;;;;;;;;;5006839;28;20033;-61
2021/06/14 10:01:06;;;;;;;1.33;1.08;;;;;;;;;;5004485;28;20044;-61
2021/06/14 10:03:41;;;;;;;4.28;1.30;;;;;;;;;;4997286;28;20021;-61
2021/06/14 10:06:06;;;;;;;3.83;1.00;;;;;;;;;;4998181;28;20481;-61
2021/06/14 10:08:34;;;;;;;3.13;1.08;;;;;;;;;;5002322;28;20038;-61
2021/06/14 10:11:04;;;;;;;4.30;1.30;;;;;;;;;;4996588;28;20034;-61
2021/06/14 10:13:30;;;;;;;1.50;1.08;;;;;;;;;;5005660;28;20124;-61
2021/06/14 10:16:01;;;;;;;3.80;1.13;;;;;;;;;;4995244;28;20030;-61
2021/06/14 10:18:32;;;;;;;1.42;1.08;;;;;;;;;;5003586;28;20144;-61
2021/06/14 10:20:57;;;;;;;2.10;1.10;;;;;;;;;;5002564;28;20033;-61
2021/06/14 10:23:23;;;;;;;2.10;1.02;;;;;;;;;;5001760;28;20080;-61
2021/06/14 10:25:48;;;;;;;1.80;1.10;;;;;;;;;;5002682;28;20034;-61
2021/06/14 10:28:14;;;;;;;1.55;1.20;;;;;;;;;;4999422;28;20133;-60
2021/06/14 10:30:40;;;;;;;1.52;1.10;;;;;;;;;;5001556;28;20120;-62
2021/06/14 10:33:07;;;;;;;1.27;1.10;;;;;;;;;;4995761;28;20523;-61
2021/06/14 10:35:32;;;;;;;1.70;1.10;;;;;;;;;;4999197;28;20489;-61
2021/06/14 10:38:02;;;;;;;2.65;0.90;;;;;;;;;;5007000;28;20037;-61
2021/06/14 10:40:28;;;;;;;4.07;1.05;;;;;;;;;;5006702;28;20033;-61
2021/06/14 10:42:54;;;;;;;2.30;1.20;;;;;;;;;;4998291;28;20448;-60
2021/06/14 10:45:24;;;;;;;1.70;1.02;;;;;;;;;;5000631;28;20045;-61
2021/06/14 10:47:51;;;;;;;1.95;1.00;;;;;;;;;;5001123;28;20081;-60
2021/06/14 10:50:22;;;;;;;1.40;0.80;;;;;;;;;;5003893;28;20488;-61
2021/06/14 10:52:47;;;;;;;2.15;1.30;;;;;;;;;;5002590;28;20025;-61
2021/06/14 10:55:19;;;;;;;2.38;0.90;;;;;;;;;;4997849;28;20026;-60
2021/06/14 10:57:45;;;;;;;2.17;1.00;;;;;;;;;;5002763;28;20033;-60
2021/06/14 11:00:31;;;;;;;1.25;1.00;;;;;;;;;;5003953;28;20116;-61
2021/06/14 11:03:05;;;;;;;1.30;0.90;;;;;;;;;;5000928;28;20034;-61
2021/06/14 11:05:47;;;;;;;1.73;0.90;;;;;;;;;;4997847;28;20432;-61
2021/06/14 11:08:18;;;;;;;4.03;1.20;;;;;;;;;;4998217;28;20038;-61
2021/06/14 11:10:49;;;;;;;1.45;0.98;;;;;;;;;;4998298;28;20080;-61
2021/06/14 11:13:15;;;;;;;2.40;1.15;;;;;;;;;;5001467;28;20032;-61
2021/06/14 11:15:43;;;;;;;2.05;1.00;;;;;;;;;;5002313;28;20034;-61
2021/06/14 11:18:23;;;;;;;3.92;1.10;;;;;;;;;;4997641;28;20120;-61
2021/06/14 11:20:51;;;;;;;2.60;1.00;;;;;;;;;;4998347;28;20106;-61
2021/06/14 11:23:29;;;;;;;1.73;0.95;;;;;;;;;;5003291;28;20095;-61
2021/06/14 11:25:55;;;;;;;;;;;;;;;;;;4997015;28;20026;-61
2021/06/14 11:28:44;;;;;;;3.42;0.90;;;;;;;;;;5001618;28;19913;-61
2021/06/14 11:31:28;;;;;;;4.35;0.90;;;;;;;;;;4997507;28;20037;-63
2021/06/14 11:34:02;;;;;;;1.25;0.90;;;;;;;;;;4997113;28;20062;-61
2021/06/14 11:36:33;;;;;;;0.98;0.90;;;;;;;;;;4998892;28;20077;-61
2021/06/14 11:39:10;;;;;;;3.13;1.00;;;;;;;;;;4995859;28;20038;-61
2021/06/14 11:41:36;;;;;;;3.10;0.90;;;;;;;;;;5002457;28;20030;-61
2021/06/14 11:44:24;;;;;;;2.80;0.80;;;;;;;;;;4999006;28;20078;-61
2021/06/14 11:46:58;;;;;;;1.10;0.90;;;;;;;;;;5001240;28;20496;-61
2021/06/14 11:49:34;;;;;;;1.20;0.80;;;;;;;;;;5000211;28;20034;-61
2021/06/14 11:52:03;;;;;;;1.00;0.90;;;;;;;;;;5002390;28;20112;-61
2021/06/14 11:54:28;;;;;;;;;;;;;;;;;;5005229;28;20046;-61
2021/06/14 11:56:58;;;;;;;1.42;0.90;;;;;;;;;;4996370;28;20281;-61
2021/06/14 11:59:32;;;;;;;2.13;0.90;;;;;;;;;;4997591;28;20032;-61
2021/06/14 12:01:59;;;;;;;1.42;0.85;;;;;;;;;;5000066;28;20451;-61
2021/06/14 12:04:24;;;;;;;1.10;0.80;;;;;;;;;;5003742;28;20366;-61
2021/06/14 12:06:50;;;;;;;2.47;0.60;;;;;;;;;;5003413;28;20045;-61
2021/06/14 12:09:21;;;;;;;1.52;0.85;;;;;;;;;;5001336;28;20041;-61
2021/06/14 12:12:00;;;;;;;0.90;0.70;;;;;;;;;;5002951;28;20089;-61
2021/06/14 12:14:26;;;;;;;1.75;0.80;;;;;;;;;;5001452;28;20029;-61
2021/06/14 12:16:57;;;;;;;1.35;0.70;;;;;;;;;;5000733;28;20026;-61
2021/06/14 12:19:24;;;;;;;1.15;0.70;;;;;;;;;;4997685;28;20522;-61
2021/06/14 12:21:57;;;;;;;2.90;0.80;;;;;;;;;;4995120;28;20120;-61
2021/06/14 12:24:23;;;;;;;0.82;0.60;;;;;;;;;;4995118;28;20050;-63
2021/06/14 12:26:49;;;;;;;1.70;0.77;;;;;;;;;;4995231;28;20498;-63
2021/06/14 12:29:22;;;;;;;2.42;0.70;;;;;;;;;;4998844;28;20037;-62
2021/06/14 12:32:18;;;;;;;2.22;0.60;;;;;;;;;;4996245;28;20038;-62
2021/06/14 12:34:45;;;;;;;1.95;0.55;;;;;;;;;;5001761;28;20057;-62
2021/06/14 12:37:17;;;;;;;1.35;0.70;;;;;;;;;;4998681;28;20035;-62
2021/06/14 12:39:55;;;;;;;1.23;0.60;;;;;;;;;;4999458;28;20027;-62
2021/06/14 12:42:21;;;;;;;1.05;0.70;;;;;;;;;;5006251;28;20041;-62
2021/06/14 12:45:13;;;;;;;1.13;0.60;;;;;;;;;;5005922;28;20163;-63
2021/06/14 12:47:44;;;;;;;1.17;0.70;;;;;;;;;;5004513;28;20073;-62
2021/06/14 12:50:19;;;;;;;2.95;0.80;;;;;;;;;;5004298;28;20067;-62
2021/06/14 12:52:45;;;;;;;1.08;0.60;;;;;;;;;;5005273;28;20048;-62
2021/06/14 12:55:24;;;;;;;1.00;0.60;;;;;;;;;;5005944;28;20041;-62
2021/06/14 12:57:51;;;;;;;1.00;0.65;;;;;;;;;;5000455;28;20470;-62
2021/06/14 13:00:19;;;;;;;2.42;0.68;;;;;;;;;;5001299;28;20030;-62
2021/06/14 13:02:55;;;;;;;;;;;;;;;;;;5003638;28;20057;-62
2021/06/14 13:05:35;;;;;;;1.20;0.70;;;;;;;;;;5004680;28;19932;-62
2021/06/14 13:08:03;;;;;;;1.85;0.80;;;;;;;;;;5001725;28;20030;-63
2021/06/14 13:10:55;;;;;;;3.20;0.82;;;;;;;;;;4999190;28;20071;-63
2021/06/14 13:13:24;;;;;;;1.02;0.50;;;;;;;;;;5003453;28;20547;-63
2021/06/14 13:15:52;;;;;;;0.70;0.60;;;;;;;;;;4996648;28;20025;-63
2021/06/14 13:18:18;;;;;;;3.13;0.70;;;;;;;;;;5000555;28;20048;-63
2021/06/14 13:20:48;;;;;;;1.10;0.70;;;;;;;;;;5005879;28;20536;-61
2021/06/14 13:23:21;;;;;;;1.23;0.60;;;;;;;;;;5001818;28;20034;-61
2021/06/14 13:25:54;;;;;;;1.30;0.70;;;;;;;;;;5009430;28;20113;-62
2021/06/14 13:28:29;;;;;;;1.13;0.70;;;;;;;;;;5009302;28;20034;-62
2021/06/14 13:31:02;;;;;;;1.13;0.57;;;;;;;;;;5005603;28;20026;-62
2021/06/14 13:33:30;;;;;;;2.47;0.60;;;;;;;;;;5002201;28;20036;-62
2021/06/14 13:36:00;;;;;;;0.68;0.50;;;;;;;;;;5002584;28;20400;-62
2021/06/14 13:38:31;;;;;;;1.08;0.50;;;;;;;;;;5003611;28;20049;-62
2021/06/14 13:40:57;;;;;;;2.83;0.80;;;;;;;;;;5003134;28;20439;-62
2021/06/14 13:43:28;;;;;;;0.95;0.60;;;;;;;;;;5002425;28;20033;-62
2021/06/14 13:45:55;;;;;;;1.17;0.55;;;;;;;;;;4999604;28;20057;-62
2021/06/14 13:48:21;;;;;;;2.17;0.80;;;;;;;;;;4997469;28;20038;-62
2021/06/14 13:50:49;;;;;;;1.65;0.55;;;;;;;;;;4999137;28;20034;-62
2021/06/14 13:53:18;;;;;;;1.25;0.70;;;;;;;;;;5006135;28;20381;-62
2021/06/14 13:55:54;;;;;;;2.30;0.70;;;;;;;;;;5001432;28;20069;-62
2021/06/14 13:58:36;;;;;;;1.38;0.70;;;;;;;;;;4999889;28;20033;-62
2021/06/14 14:01:22;;;;;;;2.05;0.77;;;;;;;;;;5002259;28;20033;-62
2021/06/14 14:04:04;;;;;;;0.82;0.63;;;;;;;;;;4999363;28;20025;-62
2021/06/14 14:06:30;;;;;;;1.60;0.75;;;;;;;;;;5005540;28;20105;-62
2021/06/14 14:08:56;;;;;;;1.55;0.90;;;;;;;;;;5003505;28;20051;-63
2021/06/14 14:11:23;;;;;;;4.55;0.70;;;;;;;;;;5005048;28;20575;-63
2021/06/14 14:14:03;;;;;;;1.83;0.80;;;;;;;;;;5000389;28;20062;-62
2021/06/14 14:16:29;;;;;;;1.30;0.70;;;;;;;;;;5004685;28;20029;-62
2021/06/14 14:18:55;;;;;;;1.40;0.70;;;;;;;;;;5003267;28;20127;-62
2021/06/14 14:21:22;;;;;;;2.28;1.08;;;;;;;;;;5000854;28;20022;-64
2021/06/14 14:23:48;;;;;;;2.90;0.90;;;;;;;;;;5002792;28;20065;-63
2021/06/14 14:26:13;;;;;;;2.10;0.88;;;;;;;;;;5002586;28;20045;-62
2021/06/14 14:28:39;;;;;;;1.80;0.75;;;;;;;;;;5007653;28;20034;-62
2021/06/14 14:31:06;;;;;;;2.92;0.90;;;;;;;;;;4998398;28;20029;-62
2021/06/14 14:33:32;;;;;;;3.25;1.00;;;;;;;;;;5017171;28;20029;-62
2021/06/14 14:36:05;;;;;;;3.80;0.90;;;;;;;;;;5000958;28;20029;-62
2021/06/14 14:38:33;;;;;;;1.42;0.98;;;;;;;;;;5002850;28;20033;-63
2021/06/14 14:41:01;;;;;;;1.98;0.73;;;;;;;;;;5002258;28;20072;-63
2021/06/14 14:43:27;;;;;;;1.75;0.80;;;;;;;;;;5005147;28;20060;-63
2021/06/14 14:45:52;;;;;;;1.45;0.63;;;;;;;;;;4999126;28;20026;-63
2021/06/14 14:48:18;;;;;;;0.88;0.80;;;;;;;;;;5003592;28;20444;-63
2021/06/14 14:50:45;;;;;;;3.28;0.80;;;;;;;;;;5017741;28;20407;-63
2021/06/14 14:53:15;;;;;;;2.05;0.77;;;;;;;;;;5000162;28;20026;-63
2021/06/14 14:55:42;;;;;;;1.08;0.73;;;;;;;;;;5000403;28;20072;-63
2021/06/14 14:58:07;;;;;;;1.80;0.90;;;;;;;;;;5002232;28;20041;-63